createdAt,value
2022-08-27T00:00:51.637Z,7.33
2022-08-27T00:03:21.269Z,9.57
2022-08-27T00:05:52.897Z,9.20
2022-08-27T00:12:34.182Z,6.43
2022-08-27T00:15:02.273Z,6.73
2022-08-27T00:17:31.912Z,7.13
2022-08-27T00:19:59.741Z,8.27
2022-08-27T00:22:28.941Z,7.13
2022-08-27T00:24:56.774Z,6.07
2022-08-27T00:27:24.672Z,7.20
2022-08-27T00:29:52.484Z,7.60
2022-08-27T00:32:20.285Z,8.00
2022-08-27T00:34:48.098Z,6.40
2022-08-27T00:37:15.985Z,7.23
2022-08-27T00:39:45.122Z,6.93
2022-08-27T00:42:13.365Z,6.53
2022-08-27T00:44:41.192Z,6.50
2022-08-27T00:47:15.989Z,8.03
2022-08-27T00:49:48.731Z,6.80
2022-08-27T00:52:23.095Z,6.50
2022-08-27T00:54:55.544Z,7.33
2022-08-27T00:57:23.756Z,7.27
2022-08-27T00:59:51.602Z,7.10
2022-08-27T01:02:19.560Z,7.50
2022-08-27T01:04:50.889Z,6.77
2022-08-27T01:07:19.820Z,7.23
2022-08-27T01:09:50.065Z,7.27
2022-08-27T01:12:19.621Z,5.90
2022-08-27T01:14:47.587Z,7.87
2022-08-27T01:17:16.686Z,6.17
2022-08-27T01:19:58.560Z,6.13
2022-08-27T01:22:35.477Z,6.40
2022-08-27T01:25:08.878Z,5.80
2022-08-27T01:27:37.481Z,6.27
2022-08-27T01:30:07.348Z,6.50
2022-08-27T01:32:36.961Z,6.20
2022-08-27T01:35:07.230Z,6.43
2022-08-27T01:37:35.791Z,7.70
2022-08-27T01:40:06.171Z,6.37
2022-08-27T01:42:36.484Z,6.60
2022-08-27T01:45:07.791Z,7.10
2022-08-27T01:47:37.103Z,7.77
2022-08-27T01:50:08.517Z,7.03
2022-08-27T01:52:36.365Z,8.20
2022-08-27T01:55:07.118Z,7.60
2022-08-27T01:57:35.153Z,7.23
2022-08-27T02:00:03.518Z,7.50
2022-08-27T02:02:32.513Z,7.60
2022-08-27T02:05:00.614Z,8.40
2022-08-27T02:07:28.529Z,6.50
2022-08-27T02:09:56.456Z,9.87
2022-08-27T02:12:25.757Z,8.97
2022-08-27T02:14:53.668Z,8.07
2022-08-27T02:17:21.609Z,7.30
2022-08-27T02:19:49.598Z,7.60
2022-08-27T02:22:17.526Z,10.57
2022-08-27T02:24:45.773Z,8.97
2022-08-27T02:27:14.050Z,9.30
2022-08-27T02:29:43.405Z,7.23
2022-08-27T02:32:24.293Z,7.93
2022-08-27T02:35:00.488Z,8.77
2022-08-27T02:37:28.605Z,8.80
2022-08-27T02:39:56.735Z,6.90
2022-08-27T02:42:24.777Z,8.33
2022-08-27T02:44:55.329Z,7.33
2022-08-27T02:47:23.296Z,6.57
2022-08-27T02:49:51.305Z,7.40
2022-08-27T02:52:25.232Z,8.03
2022-08-27T02:54:53.592Z,8.63
2022-08-27T02:57:22.196Z,9.80
2022-08-27T02:59:50.294Z,8.13
2022-08-27T03:02:20.011Z,11.47
2022-08-27T03:04:48.629Z,8.87
2022-08-27T03:07:19.071Z,9.83
2022-08-27T03:09:47.076Z,15.13
2022-08-27T03:12:15.943Z,9.93
2022-08-27T03:14:44.548Z,10.00
2022-08-27T03:17:30.148Z,8.57
2022-08-27T03:19:59.573Z,8.37
2022-08-27T03:22:27.529Z,10.07
2022-08-27T03:24:56.358Z,8.17
2022-08-27T03:27:24.345Z,9.47
2022-08-27T03:29:52.294Z,7.60
2022-08-27T03:32:20.189Z,8.03
2022-08-27T03:34:48.084Z,8.27
2022-08-27T03:37:17.612Z,10.43
2022-08-27T03:39:45.515Z,7.30
2022-08-27T03:42:13.436Z,9.97
2022-08-27T03:44:41.433Z,8.67
2022-08-27T03:47:09.408Z,9.33
2022-08-27T03:49:37.357Z,8.23
2022-08-27T03:52:05.381Z,9.93
2022-08-27T03:54:37.312Z,12.50
2022-08-27T03:57:06.259Z,12.80
2022-08-27T03:59:34.618Z,10.73
2022-08-27T04:02:03.229Z,10.20
2022-08-27T04:04:32.365Z,9.77
2022-08-27T04:07:01.268Z,13.33
2022-08-27T04:09:29.392Z,10.87
2022-08-27T04:11:58.761Z,14.87
2022-08-27T04:14:27.619Z,10.17
2022-08-27T04:16:56.617Z,12.30
2022-08-27T04:19:27.591Z,14.00
2022-08-27T04:22:01.324Z,12.40
2022-08-27T04:24:30.085Z,11.63
2022-08-27T04:26:59.545Z,7.87
2022-08-27T04:29:27.794Z,10.23
2022-08-27T04:31:57.456Z,8.43
2022-08-27T04:34:25.482Z,10.87
2022-08-27T04:36:57.116Z,11.97
2022-08-27T04:39:25.898Z,9.50
2022-08-27T04:41:56.055Z,9.60
2022-08-27T04:44:26.509Z,7.97
2022-08-27T04:46:57.199Z,7.73
2022-08-27T04:49:26.896Z,9.33
2022-08-27T04:51:55.536Z,9.43
2022-08-27T04:54:32.503Z,10.00
2022-08-27T04:57:01.536Z,7.60
2022-08-27T04:59:31.265Z,7.57
2022-08-27T05:01:59.758Z,9.10
2022-08-27T05:04:29.070Z,7.70
2022-08-27T05:06:57.118Z,5.37
2022-08-27T05:09:26.522Z,8.37
2022-08-27T05:11:55.356Z,8.00
2022-08-27T05:14:24.033Z,7.47
2022-08-27T05:16:53.299Z,8.13
2022-08-27T05:19:21.734Z,6.90
2022-08-27T05:21:52.569Z,7.93
2022-08-27T05:24:21.259Z,7.97
2022-08-27T05:26:49.658Z,7.20
2022-08-27T05:29:17.610Z,8.17
2022-08-27T05:31:48.415Z,6.00
2022-08-27T05:34:24.556Z,6.50
2022-08-27T05:36:54.452Z,6.03
2022-08-27T05:39:22.384Z,6.07
2022-08-27T05:41:52.267Z,8.60
2022-08-27T05:47:08.060Z,6.30
2022-08-27T05:49:37.567Z,6.70
2022-08-27T05:52:09.792Z,8.50
2022-08-27T05:54:37.725Z,6.00
2022-08-27T05:57:06.037Z,7.17
2022-08-27T05:59:51.145Z,7.13
2022-08-27T06:02:20.505Z,6.63
2022-08-27T06:04:49.890Z,9.97
2022-08-27T06:07:18.673Z,7.47
2022-08-27T06:09:46.598Z,8.53
2022-08-27T06:12:14.618Z,7.13
2022-08-27T06:14:42.504Z,7.83
2022-08-27T06:17:10.405Z,8.77
2022-08-27T06:19:38.332Z,8.80
2022-08-27T06:22:10.299Z,6.63
2022-08-27T06:24:39.985Z,7.93
2022-08-27T06:27:09.378Z,8.23
2022-08-27T06:29:37.308Z,6.47
2022-08-27T06:32:05.711Z,6.20
2022-08-27T06:34:34.154Z,5.43
2022-08-27T06:37:02.208Z,5.70
2022-08-27T06:39:32.773Z,5.40
2022-08-27T06:42:00.688Z,6.10
2022-08-27T06:44:28.609Z,4.80
2022-08-27T06:46:56.672Z,6.13
2022-08-27T06:49:24.880Z,5.23
2022-08-27T06:51:52.843Z,5.80
2022-08-27T06:54:20.730Z,5.73
2022-08-27T06:56:50.412Z,5.33
2022-08-27T06:59:20.703Z,8.47
2022-08-27T07:01:51.163Z,8.27
2022-08-27T07:04:21.768Z,6.43
2022-08-27T07:06:50.108Z,6.07
2022-08-27T07:09:20.530Z,7.30
2022-08-27T07:11:49.874Z,8.37
2022-08-27T07:14:17.986Z,6.23
2022-08-27T07:16:45.890Z,7.53
2022-08-27T07:19:16.186Z,7.53
2022-08-27T07:21:45.305Z,7.07
2022-08-27T07:24:13.362Z,6.13
2022-08-27T07:26:44.821Z,6.83
2022-08-27T07:29:15.912Z,6.40
2022-08-27T07:31:44.487Z,7.00
2022-08-27T07:34:12.593Z,7.73
2022-08-27T07:36:41.055Z,9.00
2022-08-27T07:39:09.370Z,7.70
2022-08-27T07:41:58.261Z,7.83
2022-08-27T07:44:28.104Z,8.50
2022-08-27T07:47:01.021Z,8.50
2022-08-27T07:49:29.398Z,7.47
2022-08-27T07:51:57.461Z,6.70
2022-08-27T07:54:25.609Z,7.97
2022-08-27T07:56:55.771Z,6.87
2022-08-27T07:59:24.445Z,6.90
2022-08-27T08:01:54.885Z,7.07
2022-08-27T08:04:23.604Z,7.30
2022-08-27T08:06:52.064Z,7.77
2022-08-27T08:09:22.001Z,11.33
2022-08-27T08:11:50.425Z,9.43
2022-08-27T08:14:18.791Z,6.60
2022-08-27T08:16:46.784Z,6.97
2022-08-27T08:19:16.260Z,6.47
2022-08-27T08:21:44.456Z,7.13
2022-08-27T08:24:12.369Z,7.67
2022-08-27T08:26:41.898Z,7.70
2022-08-27T08:29:13.814Z,7.57
2022-08-27T08:31:46.859Z,10.40
2022-08-27T08:34:20.555Z,7.67
2022-08-27T08:36:54.694Z,9.13
2022-08-27T08:39:23.487Z,13.27
2022-08-27T08:41:54.694Z,9.80
2022-08-27T08:44:30.942Z,9.10
2022-08-27T08:47:04.342Z,11.50
2022-08-27T08:49:44.295Z,10.20
2022-08-27T08:52:30.950Z,9.67
2022-08-27T08:55:08.395Z,8.50
2022-08-27T08:57:40.722Z,7.60
2022-08-27T09:00:12.360Z,8.60
2022-08-27T09:02:40.565Z,8.00
2022-08-27T09:05:11.428Z,7.10
2022-08-27T09:07:48.633Z,7.13
2022-08-27T09:10:26.374Z,7.53
2022-08-27T09:12:59.358Z,7.40
2022-08-27T09:15:31.637Z,7.40
2022-08-27T09:18:08.059Z,7.10
2022-08-27T09:20:49.365Z,6.97
2022-08-27T09:23:25.112Z,7.03
2022-08-27T09:25:53.025Z,7.00
2022-08-27T09:28:42.382Z,6.77
2022-08-27T09:31:13.913Z,6.40
2022-08-27T09:33:53.602Z,6.53
2022-08-27T09:36:26.339Z,6.27
2022-08-27T09:38:58.392Z,6.37
2022-08-27T09:41:30.141Z,6.50
2022-08-27T09:43:59.825Z,5.30
2022-08-27T09:46:28.441Z,6.40
2022-08-27T09:48:56.930Z,5.73
2022-08-27T09:51:28.581Z,5.37
2022-08-27T09:53:59.097Z,5.53
2022-08-27T09:56:30.671Z,5.53
2022-08-27T09:59:04.472Z,6.07
2022-08-27T10:01:34.626Z,5.27
2022-08-27T10:04:08.697Z,6.13
2022-08-27T10:06:39.109Z,6.20
2022-08-27T10:09:12.911Z,5.77
2022-08-27T10:11:45.533Z,5.93
2022-08-27T10:14:19.098Z,5.90
2022-08-27T10:16:56.895Z,5.47
2022-08-27T10:19:43.652Z,5.60
2022-08-27T10:22:26.638Z,5.10
2022-08-27T10:25:03.780Z,4.73
2022-08-27T10:27:40.433Z,4.60
2022-08-27T10:30:11.588Z,4.70
2022-08-27T10:32:56.653Z,5.17
2022-08-27T10:35:28.150Z,3.77
2022-08-27T10:38:11.592Z,4.30
2022-08-27T10:40:44.382Z,4.60
2022-08-27T10:43:28.394Z,3.97
2022-08-27T10:46:04.826Z,4.90
2022-08-27T10:48:39.035Z,4.20
2022-08-27T10:51:16.433Z,3.87
2022-08-27T10:53:50.742Z,3.83
2022-08-27T10:56:28.482Z,3.60
2022-08-27T10:59:06.617Z,3.73
2022-08-27T11:01:44.474Z,3.67
2022-08-27T11:04:18.569Z,3.50
2022-08-27T11:06:55.447Z,3.67
2022-08-27T11:09:35.450Z,3.30
2022-08-27T11:12:14.260Z,3.83
2022-08-27T11:14:50.655Z,3.03
2022-08-27T11:17:22.942Z,3.33
2022-08-27T11:19:55.585Z,3.30
2022-08-27T11:22:29.490Z,2.70
2022-08-27T11:25:04.462Z,2.80
2022-08-27T11:27:34.911Z,2.90
2022-08-27T11:30:08.834Z,2.73
2022-08-27T11:32:50.709Z,3.00
2022-08-27T11:35:22.954Z,2.63
2022-08-27T11:38:29.142Z,2.63
2022-08-27T11:41:17.519Z,2.80
2022-08-27T11:43:47.360Z,2.70
2022-08-27T11:46:25.261Z,3.60
2022-08-27T11:48:59.207Z,3.17
2022-08-27T11:51:34.134Z,2.97
2022-08-27T11:54:04.041Z,2.70
2022-08-27T11:56:41.507Z,3.00
2022-08-27T11:59:23.440Z,2.97
2022-08-27T12:01:53.501Z,2.90
2022-08-27T12:04:34.392Z,3.07
2022-08-27T12:07:05.434Z,3.57
2022-08-27T12:09:53.926Z,2.90
2022-08-27T12:12:31.664Z,2.43
2022-08-27T12:15:05.945Z,3.07
2022-08-27T12:17:42.286Z,3.07
2022-08-27T12:20:19.834Z,2.83
2022-08-27T12:23:23.565Z,3.47
2022-08-27T12:26:00.312Z,2.97
2022-08-27T12:28:29.777Z,2.53
2022-08-27T12:30:58.629Z,3.30
2022-08-27T12:33:31.818Z,3.10
2022-08-27T12:36:08.031Z,3.30
2022-08-27T12:38:48.040Z,3.80
2022-08-27T12:41:27.034Z,3.13
2022-08-27T12:44:06.656Z,3.23
2022-08-27T12:46:47.464Z,2.93
2022-08-27T12:49:38.664Z,3.03
2022-08-27T12:52:19.282Z,2.97
2022-08-27T12:54:58.365Z,2.90
2022-08-27T12:57:35.066Z,2.80
2022-08-27T13:00:14.190Z,3.00
2022-08-27T13:03:11.776Z,3.27
2022-08-27T13:05:42.305Z,3.00
2022-08-27T13:08:21.037Z,3.17
2022-08-27T13:10:49.166Z,2.90
2022-08-27T13:13:20.250Z,3.03
2022-08-27T13:15:52.579Z,3.20
2022-08-27T13:18:21.158Z,2.93
2022-08-27T13:20:53.366Z,3.50
2022-08-27T13:23:23.947Z,3.23
2022-08-27T13:26:00.216Z,3.13
2022-08-27T13:28:31.001Z,2.90
2022-08-27T13:31:01.308Z,2.80
2022-08-27T13:33:33.209Z,2.80
2022-08-27T13:36:02.557Z,2.77
2022-08-27T13:38:33.089Z,3.07
2022-08-27T13:41:06.394Z,2.40
2022-08-27T13:43:37.610Z,2.57
2022-08-27T13:46:12.899Z,2.70
2022-08-27T13:48:42.773Z,2.80
2022-08-27T13:51:11.885Z,2.47
2022-08-27T13:54:05.340Z,2.80
2022-08-27T13:56:36.070Z,3.13
2022-08-27T13:59:15.893Z,2.97
2022-08-27T14:01:56.418Z,2.83
2022-08-27T14:04:27.090Z,2.70
2022-08-27T14:06:55.556Z,2.50
2022-08-27T14:09:26.238Z,2.67
2022-08-27T14:12:02.147Z,2.50
2022-08-27T14:14:31.726Z,2.57
2022-08-27T14:17:02.538Z,2.10
2022-08-27T14:19:36.344Z,2.20
2022-08-27T14:22:05.269Z,2.10
2022-08-27T14:24:33.205Z,1.70
2022-08-27T14:27:06.960Z,1.90
2022-08-27T14:29:34.889Z,2.40
2022-08-27T14:32:07.313Z,1.90
2022-08-27T14:34:36.174Z,1.80
2022-08-27T14:37:04.910Z,2.03
2022-08-27T14:39:33.272Z,1.93
2022-08-27T14:42:01.377Z,1.90
2022-08-27T14:44:29.543Z,1.80
2022-08-27T14:46:57.616Z,2.30
2022-08-27T14:49:32.300Z,1.77
2022-08-27T14:52:00.277Z,1.67
2022-08-27T14:54:28.987Z,1.87
2022-08-27T14:57:02.729Z,1.63
2022-08-27T14:59:30.897Z,1.70
2022-08-27T15:02:01.432Z,1.53
2022-08-27T15:04:32.139Z,2.10
2022-08-27T15:07:01.024Z,1.67
2022-08-27T15:09:29.955Z,1.57
2022-08-27T15:11:58.733Z,1.50
2022-08-27T15:14:29.070Z,1.60
2022-08-27T15:16:56.969Z,1.50
2022-08-27T15:19:26.364Z,1.53
2022-08-27T15:22:01.177Z,1.33
2022-08-27T15:24:41.033Z,1.70
2022-08-27T15:27:08.949Z,1.30
2022-08-27T15:29:36.933Z,1.30
2022-08-27T15:32:06.120Z,1.30
2022-08-27T15:34:34.082Z,1.40
2022-08-27T15:37:03.820Z,1.30
2022-08-27T15:39:31.710Z,1.73
2022-08-27T15:42:06.664Z,1.80
2022-08-27T15:44:35.886Z,1.90
2022-08-27T15:47:03.854Z,2.30
2022-08-27T15:49:31.776Z,2.00
2022-08-27T15:52:00.640Z,2.10
2022-08-27T15:54:29.929Z,3.27
2022-08-27T15:56:59.946Z,2.43
2022-08-27T15:59:28.208Z,2.23
2022-08-27T16:01:56.303Z,2.27
2022-08-27T16:04:24.594Z,1.70
2022-08-27T16:06:52.606Z,2.17
2022-08-27T16:09:20.556Z,2.10
2022-08-27T16:11:49.829Z,2.23
2022-08-27T16:14:17.747Z,3.03
2022-08-27T16:16:49.905Z,1.97
2022-08-27T16:19:20.205Z,1.90
2022-08-27T16:21:49.860Z,2.20
2022-08-27T16:24:21.232Z,2.43
2022-08-27T16:26:50.729Z,2.40
2022-08-27T16:29:18.649Z,1.90
2022-08-27T16:31:46.642Z,1.63
2022-08-27T16:34:22.298Z,1.90
2022-08-27T16:36:50.280Z,2.07
2022-08-27T16:39:18.179Z,3.13
2022-08-27T16:41:46.542Z,2.90
2022-08-27T16:44:16.484Z,1.80
2022-08-27T16:46:44.423Z,2.17
2022-08-27T16:49:30.246Z,2.33
2022-08-27T16:51:58.765Z,2.53
2022-08-27T16:54:27.902Z,2.50
2022-08-27T16:56:56.013Z,2.67
2022-08-27T16:59:25.299Z,2.60
2022-08-27T17:01:54.924Z,3.03
2022-08-27T17:04:29.629Z,2.90
2022-08-27T17:07:00.417Z,2.83
2022-08-27T17:09:28.677Z,3.27
2022-08-27T17:11:58.481Z,2.80
2022-08-27T17:14:27.953Z,3.37
2022-08-27T17:16:56.061Z,3.73
2022-08-27T17:19:25.983Z,3.87
2022-08-27T17:21:54.938Z,4.10
2022-08-27T17:24:23.370Z,3.67
2022-08-27T17:26:51.301Z,3.87
2022-08-27T17:29:19.834Z,3.77
2022-08-27T17:31:49.182Z,4.47
2022-08-27T17:34:20.772Z,3.37
2022-08-27T17:36:48.727Z,4.00
2022-08-27T17:39:17.056Z,4.17
2022-08-27T17:41:47.492Z,3.87
2022-08-27T17:44:21.924Z,4.20
2022-08-27T17:46:51.881Z,4.50
2022-08-27T17:49:20.032Z,5.20
2022-08-27T17:51:48.953Z,4.97
2022-08-27T17:54:27.896Z,5.23
2022-08-27T17:56:55.925Z,4.37
2022-08-27T17:59:24.074Z,4.40
2022-08-27T18:01:53.974Z,3.97
2022-08-27T18:04:22.337Z,4.70
2022-08-27T18:06:50.573Z,4.30
2022-08-27T18:09:18.667Z,4.27
2022-08-27T18:11:47.337Z,4.63
2022-08-27T18:14:18.416Z,5.13
2022-08-27T18:16:46.653Z,5.17
2022-08-27T18:19:16.000Z,4.40
2022-08-27T18:21:46.186Z,4.37
2022-08-27T18:24:15.142Z,5.00
2022-08-27T18:26:44.354Z,4.37
2022-08-27T18:29:13.658Z,4.87
2022-08-27T18:31:42.022Z,5.33
2022-08-27T18:34:09.982Z,5.80
2022-08-27T18:36:39.254Z,4.80
2022-08-27T18:39:07.194Z,4.60
2022-08-27T18:41:35.170Z,4.80
2022-08-27T18:44:04.622Z,4.83
2022-08-27T18:46:43.443Z,5.07
2022-08-27T18:49:12.162Z,5.13
2022-08-27T18:51:43.608Z,4.50
2022-08-27T18:54:12.078Z,4.50
2022-08-27T18:56:39.997Z,5.50
2022-08-27T18:59:09.938Z,5.27
2022-08-27T19:01:38.380Z,5.00
2022-08-27T19:04:06.966Z,4.87
2022-08-27T19:06:34.961Z,5.37
2022-08-27T19:09:05.013Z,6.13
2022-08-27T19:11:33.180Z,5.30
2022-08-27T19:14:01.138Z,4.83
2022-08-27T19:16:40.936Z,4.90
2022-08-27T19:19:09.414Z,5.60
2022-08-27T19:21:38.144Z,6.03
2022-08-27T19:24:08.705Z,5.20
2022-08-27T19:26:37.362Z,6.43
2022-08-27T19:29:05.754Z,5.43
2022-08-27T19:31:36.340Z,6.00
2022-08-27T19:34:05.381Z,6.00
2022-08-27T19:36:34.813Z,5.57
2022-08-27T19:39:03.413Z,6.33
2022-08-27T19:41:32.900Z,6.53
2022-08-27T19:44:00.816Z,6.67
2022-08-27T19:46:29.066Z,6.33
2022-08-27T19:48:57.886Z,5.80
2022-08-27T19:51:25.864Z,6.23
2022-08-27T19:53:53.900Z,6.43
2022-08-27T19:56:22.652Z,6.60
2022-08-27T19:58:56.546Z,6.37
2022-08-27T20:01:25.669Z,6.07
2022-08-27T20:03:53.973Z,5.67
2022-08-27T20:06:27.207Z,6.93
2022-08-27T20:08:55.116Z,5.40
2022-08-27T20:11:23.055Z,6.17
2022-08-27T20:13:52.473Z,5.53
2022-08-27T20:16:20.434Z,7.03
2022-08-27T20:18:48.373Z,5.83
2022-08-27T20:21:16.305Z,6.20
2022-08-27T20:23:44.197Z,6.17
2022-08-27T20:26:12.157Z,7.53
2022-08-27T20:28:40.492Z,6.30
2022-08-27T20:31:10.065Z,6.30
2022-08-27T20:33:38.277Z,5.90
2022-08-27T20:36:07.921Z,5.77
2022-08-27T20:38:36.370Z,5.70
2022-08-27T20:41:05.546Z,7.40
2022-08-27T20:43:33.766Z,6.47
2022-08-27T20:46:02.467Z,5.93
2022-08-27T20:48:31.971Z,5.63
2022-08-27T20:50:59.912Z,6.23
2022-08-27T20:53:27.851Z,6.50
2022-08-27T20:55:56.616Z,6.60
2022-08-27T20:58:42.712Z,7.53
2022-08-27T21:01:11.557Z,6.17
2022-08-27T21:03:40.914Z,7.17
2022-08-27T21:06:08.951Z,7.33
2022-08-27T21:08:38.906Z,6.80
2022-08-27T21:11:10.901Z,7.10
2022-08-27T21:13:51.167Z,7.03
2022-08-27T21:16:23.522Z,6.17
2022-08-27T21:18:53.634Z,6.73
2022-08-27T21:21:21.600Z,6.23
2022-08-27T21:23:49.809Z,6.57
2022-08-27T21:26:17.750Z,7.00
2022-08-27T21:28:45.677Z,6.43
2022-08-27T21:31:13.626Z,7.07
2022-08-27T21:33:41.929Z,7.10
2022-08-27T21:36:12.405Z,6.57
2022-08-27T21:38:40.954Z,6.30
2022-08-27T21:41:09.053Z,8.20
2022-08-27T21:43:37.283Z,7.30
2022-08-27T21:46:06.100Z,6.47
2022-08-27T21:48:34.041Z,7.10
2022-08-27T21:51:08.871Z,6.90
2022-08-27T21:53:38.646Z,7.30
2022-08-27T21:56:07.036Z,6.77
2022-08-27T21:58:35.309Z,6.47
2022-08-27T22:01:05.381Z,6.90
2022-08-27T22:03:34.794Z,6.13
2022-08-27T22:06:06.572Z,6.93
2022-08-27T22:08:34.851Z,6.17
2022-08-27T22:11:04.874Z,7.17
2022-08-27T22:13:34.492Z,7.13
2022-08-27T22:16:02.558Z,7.07
2022-08-27T22:18:30.987Z,6.57
2022-08-27T22:21:00.152Z,7.03
2022-08-27T22:23:29.017Z,7.70
2022-08-27T22:25:56.951Z,6.97
2022-08-27T22:28:26.314Z,6.83
2022-08-27T22:30:54.262Z,6.80
2022-08-27T22:33:22.286Z,6.87
2022-08-27T22:35:50.489Z,7.00
2022-08-27T22:38:18.452Z,7.17
2022-08-27T22:40:46.486Z,6.67
2022-08-27T22:43:14.510Z,6.57
2022-08-27T22:45:43.813Z,6.50
2022-08-27T22:48:12.246Z,7.50
2022-08-27T22:50:40.480Z,8.53
2022-08-27T22:53:08.929Z,7.97
2022-08-27T22:55:37.329Z,9.63
2022-08-27T22:58:05.852Z,6.80
2022-08-27T23:00:36.605Z,8.43
2022-08-27T23:03:09.060Z,9.87
2022-08-27T23:05:40.476Z,7.83
2022-08-27T23:08:11.727Z,8.87
2022-08-27T23:10:41.157Z,8.43
2022-08-27T23:13:09.684Z,8.53
2022-08-27T23:15:38.447Z,7.13
2022-08-27T23:18:08.676Z,8.47
2022-08-27T23:20:36.769Z,7.90
2022-08-27T23:23:04.748Z,8.13
2022-08-27T23:25:51.481Z,8.13
2022-08-27T23:28:20.101Z,8.67
2022-08-27T23:30:49.069Z,8.40
2022-08-27T23:33:18.613Z,7.90
2022-08-27T23:35:48.202Z,7.90
2022-08-27T23:38:16.764Z,8.63
2022-08-27T23:40:45.408Z,9.73
2022-08-27T23:43:14.195Z,9.20
2022-08-27T23:45:43.458Z,9.03
2022-08-27T23:48:12.938Z,10.20
2022-08-27T23:50:45.275Z,8.00
2022-08-27T23:53:14.609Z,7.87
2022-08-27T23:55:47.079Z,9.00
2022-08-27T23:58:15.103Z,8.83
